createdAt,value
2022-07-25T00:31:58.066Z,1002.39
2022-07-25T00:32:38.604Z,1002.38
2022-07-25T00:33:19.041Z,1002.4
2022-07-25T00:33:59.546Z,1002.42
2022-07-25T00:34:40.115Z,1002.35
2022-07-25T00:35:20.803Z,1002.36
2022-07-25T00:36:01.201Z,1002.34
2022-07-25T00:36:41.699Z,1002.37
2022-07-25T00:37:22.163Z,1002.36
2022-07-25T00:38:02.669Z,1002.32
2022-07-25T00:38:43.265Z,1002.31
2022-07-25T00:39:23.703Z,1002.33
2022-07-25T00:40:04.190Z,1002.32
2022-07-25T00:41:25.148Z,1002.26
2022-07-25T00:42:05.614Z,1002.26
2022-07-25T00:42:46.165Z,1002.25
2022-07-25T00:43:26.644Z,1002.28
2022-07-25T00:44:07.443Z,1002.26
2022-07-25T00:44:47.616Z,1002.27
2022-07-25T00:45:28.065Z,1002.29
2022-07-25T00:46:08.717Z,1002.28
2022-07-25T00:46:49.152Z,1002.3
2022-07-25T00:47:29.568Z,1002.26
2022-07-25T00:48:10.045Z,1002.29
2022-07-25T00:48:50.598Z,1002.31
2022-07-25T00:49:31.124Z,1002.29
2022-07-25T00:50:11.626Z,1002.27
2022-07-25T00:51:32.634Z,1002.31
2022-07-25T00:52:13.059Z,1002.31
2022-07-25T00:52:53.517Z,1002.33
2022-07-25T00:53:34.021Z,1002.28
2022-07-25T00:54:14.545Z,1002.33
2022-07-25T00:54:54.988Z,1002.27
2022-07-25T00:55:35.512Z,1002.26
2022-07-25T00:56:16.006Z,1002.31
2022-07-25T00:56:56.393Z,1002.29
2022-07-25T00:57:36.928Z,1002.3
2022-07-25T00:58:17.461Z,1002.27
2022-07-25T00:58:58.042Z,1002.31
2022-07-25T00:59:38.570Z,1002.28
2022-07-25T01:00:19.337Z,1002.26
2022-07-25T01:00:59.694Z,1002.32
2022-07-25T01:01:40.249Z,1002.28
2022-07-25T01:02:21.296Z,1002.28
2022-07-25T01:03:01.717Z,1002.29
2022-07-25T01:03:43.377Z,1002.29
2022-07-25T01:04:23.812Z,1002.29
2022-07-25T01:05:04.439Z,1002.29
2022-07-25T01:06:26.164Z,1002.24
2022-07-25T01:07:06.662Z,1002.27
2022-07-25T01:07:47.236Z,1002.26
2022-07-25T01:08:27.754Z,1002.25
2022-07-25T01:09:08.246Z,1002.24
2022-07-25T01:09:48.702Z,1002.21
2022-07-25T01:10:29.226Z,1002.17
2022-07-25T01:11:09.690Z,1002.12
2022-07-25T01:11:50.220Z,1002.18
2022-07-25T01:12:30.658Z,1002.19
2022-07-25T01:13:11.207Z,1002.17
2022-07-25T01:13:51.734Z,1002.16
2022-07-25T01:14:32.187Z,1002.16
2022-07-25T01:15:12.680Z,1002.14
2022-07-25T01:15:53.340Z,1002.11
2022-07-25T01:16:33.692Z,1002.11
2022-07-25T01:17:14.249Z,1002.11
2022-07-25T01:17:54.697Z,1002.16
2022-07-25T01:18:35.207Z,1002.14
2022-07-25T01:19:15.706Z,1002.11
2022-07-25T01:19:56.206Z,1002.11
2022-07-25T01:20:36.678Z,1002.12
2022-07-25T01:21:17.201Z,1002.12
2022-07-25T01:21:57.665Z,1002.13
2022-07-25T01:22:38.144Z,1002.14
2022-07-25T01:23:59.122Z,1002.13
2022-07-25T01:24:39.630Z,1002.1
2022-07-25T01:25:20.134Z,1002.12
2022-07-25T01:26:00.636Z,1002.15
2022-07-25T01:26:41.153Z,1002.1
2022-07-25T01:27:21.656Z,1002.1
2022-07-25T01:28:02.184Z,1002.14
2022-07-25T01:28:42.683Z,1002.13
2022-07-25T01:29:23.168Z,1002.12
2022-07-25T01:30:03.708Z,1002.12
2022-07-25T01:31:24.665Z,1002.11
2022-07-25T01:32:05.123Z,1002.12
2022-07-25T01:32:45.599Z,1002.12
2022-07-25T01:33:26.214Z,1002.1
2022-07-25T01:34:07.018Z,1002.12
2022-07-25T01:34:47.147Z,1002.11
2022-07-25T01:35:27.652Z,1002.09
2022-07-25T01:36:08.240Z,1002.08
2022-07-25T01:36:48.764Z,1002.08
2022-07-25T01:37:29.286Z,1002.11
2022-07-25T01:38:09.732Z,1002.05
2022-07-25T01:38:50.224Z,1002.03
2022-07-25T01:39:30.841Z,1002.08
2022-07-25T01:40:11.335Z,1001.99
2022-07-25T01:41:32.326Z,1001.97
2022-07-25T01:42:12.772Z,1001.94
2022-07-25T01:42:53.400Z,1001.95
2022-07-25T01:43:33.867Z,1001.89
2022-07-25T01:44:14.397Z,1001.85
2022-07-25T01:44:54.842Z,1001.87
2022-07-25T01:45:35.386Z,1001.81
2022-07-25T01:46:15.878Z,1001.83
2022-07-25T01:46:56.312Z,1001.84
2022-07-25T01:47:36.858Z,1001.83
2022-07-25T01:48:17.351Z,1001.83
2022-07-25T01:48:57.909Z,1001.82
2022-07-25T01:49:38.310Z,1001.85
2022-07-25T01:50:18.810Z,1001.83
2022-07-25T01:50:59.325Z,1001.84
2022-07-25T01:51:39.770Z,1001.82
2022-07-25T01:52:20.234Z,1001.81
2022-07-25T01:53:00.729Z,1001.84
2022-07-25T01:53:41.182Z,1001.86
2022-07-25T01:54:21.717Z,1001.88
2022-07-25T01:55:02.311Z,1001.85
2022-07-25T01:55:42.751Z,1001.85
2022-07-25T01:56:23.229Z,1001.87
2022-07-25T01:57:03.768Z,1001.84
2022-07-25T01:57:49.691Z,1001.87
2022-07-25T01:58:24.715Z,1001.88
2022-07-25T01:59:05.206Z,1001.83
2022-07-25T01:59:45.683Z,1001.83
2022-07-25T02:00:26.255Z,1001.86
2022-07-25T02:01:06.747Z,1001.85
2022-07-25T02:01:47.207Z,1001.81
2022-07-25T02:02:27.708Z,1001.81
2022-07-25T02:03:08.119Z,1001.79
2022-07-25T02:03:48.573Z,1001.82
2022-07-25T02:04:29.081Z,1001.8
2022-07-25T02:05:09.605Z,1001.78
2022-07-25T02:05:50.018Z,1001.81
2022-07-25T02:06:30.547Z,1001.81
2022-07-25T02:07:11.001Z,1001.82
2022-07-25T02:07:51.505Z,1001.84
2022-07-25T02:08:32.064Z,1001.8
2022-07-25T02:10:31.405Z,1001.82
2022-07-25T02:11:11.620Z,1001.8
2022-07-25T02:11:52.026Z,1001.77
2022-07-25T02:12:32.506Z,1001.78
2022-07-25T02:13:12.999Z,1001.76
2022-07-25T02:13:53.527Z,1001.74
2022-07-25T02:14:33.938Z,1001.72
2022-07-25T02:15:14.454Z,1001.69
2022-07-25T02:15:54.943Z,1001.69
2022-07-25T02:16:35.506Z,1001.67
2022-07-25T02:17:16.073Z,1001.68
2022-07-25T02:17:56.462Z,1001.65
2022-07-25T02:18:36.899Z,1001.63
2022-07-25T02:19:17.458Z,1001.7
2022-07-25T02:19:57.923Z,1001.64
2022-07-25T02:20:38.379Z,1001.65
2022-07-25T02:22:56.283Z,1001.69
2022-07-25T02:23:36.904Z,1001.64
2022-07-25T02:24:17.330Z,1001.67
2022-07-25T02:24:57.815Z,1001.65
2022-07-25T02:25:38.234Z,1001.66
2022-07-25T02:26:18.797Z,1001.69
2022-07-25T02:26:59.233Z,1001.66
2022-07-25T02:27:39.730Z,1001.63
2022-07-25T02:28:20.218Z,1001.58
2022-07-25T02:29:00.700Z,1001.64
2022-07-25T02:29:41.190Z,1001.6
2022-07-25T02:30:21.661Z,1001.63
2022-07-25T02:31:02.198Z,1001.6
2022-07-25T02:31:42.627Z,1001.59
2022-07-25T02:32:23.138Z,1001.56
2022-07-25T02:33:03.599Z,1001.53
2022-07-25T02:33:44.080Z,1001.51
2022-07-25T02:34:24.551Z,1001.56
2022-07-25T02:35:05.037Z,1001.53
2022-07-25T02:35:45.495Z,1001.49
2022-07-25T02:36:25.971Z,1001.5
2022-07-25T02:37:06.451Z,1001.48
2022-07-25T02:37:46.946Z,1001.47
2022-07-25T02:39:07.906Z,1001.44
2022-07-25T02:39:48.359Z,1001.44
2022-07-25T02:40:28.826Z,1001.41
2022-07-25T02:41:09.311Z,1001.4
2022-07-25T02:41:49.802Z,1001.41
2022-07-25T02:42:30.304Z,1001.4
2022-07-25T02:43:10.848Z,1001.41
2022-07-25T02:43:51.284Z,1001.41
2022-07-25T02:44:31.749Z,1001.4
2022-07-25T02:45:12.250Z,1001.38
2022-07-25T02:46:33.318Z,1001.36
2022-07-25T02:47:13.717Z,1001.36
2022-07-25T02:47:54.212Z,1001.37
2022-07-25T02:48:35.616Z,1001.36
2022-07-25T02:49:16.141Z,1001.37
2022-07-25T02:49:56.514Z,1001.35
2022-07-25T02:50:36.994Z,1001.33
2022-07-25T02:51:17.461Z,1001.35
2022-07-25T02:51:57.972Z,1001.29
2022-07-25T02:52:38.451Z,1001.35
2022-07-25T02:53:34.117Z,1001.29
2022-07-25T02:53:59.425Z,1001.27
2022-07-25T02:54:39.882Z,1001.32
2022-07-25T02:55:20.408Z,1001.29
2022-07-25T02:56:00.858Z,1001.29
2022-07-25T02:56:41.333Z,1001.28
2022-07-25T02:58:54.348Z,1001.23
2022-07-25T02:59:34.535Z,1001.25
2022-07-25T03:00:15.075Z,1001.22
2022-07-25T03:00:55.688Z,1001.21
2022-07-25T03:01:36.204Z,1001.21
2022-07-25T03:02:16.633Z,1001.19
2022-07-25T03:02:57.081Z,1001.21
2022-07-25T03:03:37.626Z,1001.21
2022-07-25T03:04:18.117Z,1001.23
2022-07-25T03:04:58.547Z,1001.18
2022-07-25T03:05:39.114Z,1001.18
2022-07-25T03:06:19.542Z,1001.21
2022-07-25T03:06:59.969Z,1001.21
2022-07-25T03:07:40.490Z,1001.2
2022-07-25T03:08:20.981Z,1001.16
2022-07-25T03:09:01.468Z,1001.2
2022-07-25T03:09:41.973Z,1001.17
2022-07-25T03:10:22.457Z,1001.14
2022-07-25T03:11:02.950Z,1001.12
2022-07-25T03:11:43.481Z,1001.13
2022-07-25T03:12:23.950Z,1001.13
2022-07-25T03:13:04.434Z,1001.1
2022-07-25T03:14:25.356Z,1001.07
2022-07-25T03:15:05.802Z,1001.09
2022-07-25T03:15:46.336Z,1001.06
2022-07-25T03:16:26.833Z,1001.02
2022-07-25T03:17:07.365Z,1001.06
2022-07-25T03:17:47.797Z,1001.08
2022-07-25T03:18:28.390Z,1001.03
2022-07-25T03:19:08.774Z,1001.07
2022-07-25T03:19:49.267Z,1001.04
2022-07-25T03:20:29.717Z,1000.99
2022-07-25T03:21:10.174Z,1001.03
2022-07-25T03:21:50.653Z,1001
2022-07-25T03:22:31.196Z,1000.95
2022-07-25T03:23:11.599Z,1001
2022-07-25T03:23:52.783Z,1000.97
2022-07-25T03:24:32.556Z,1000.93
2022-07-25T03:25:15.547Z,1000.91
2022-07-25T03:25:53.579Z,1000.91
2022-07-25T03:26:34.048Z,1000.95
2022-07-25T03:27:14.582Z,1000.9
2022-07-25T03:27:55.042Z,1000.9
2022-07-25T03:28:35.465Z,1000.91
2022-07-25T03:29:15.925Z,1000.94
2022-07-25T03:29:56.442Z,1000.94
2022-07-25T03:30:36.908Z,1000.92
2022-07-25T03:31:57.993Z,1000.94
2022-07-25T03:32:38.432Z,1000.9
2022-07-25T03:33:18.928Z,1000.9
2022-07-25T03:33:59.431Z,1000.87
2022-07-25T03:34:39.904Z,1000.86
2022-07-25T03:35:20.360Z,1000.88
2022-07-25T03:36:00.923Z,1000.87
2022-07-25T03:36:41.439Z,1000.86
2022-07-25T03:37:21.809Z,1000.85
2022-07-25T03:38:02.321Z,1000.85
2022-07-25T03:39:24.776Z,1000.83
2022-07-25T03:40:05.292Z,1000.87
2022-07-25T03:40:45.747Z,1000.84
2022-07-25T03:41:27.969Z,1000.83
2022-07-25T03:42:06.787Z,1000.82
2022-07-25T03:42:47.332Z,1000.78
2022-07-25T03:43:27.762Z,1000.8
2022-07-25T03:44:08.657Z,1000.83
2022-07-25T03:44:48.778Z,1000.78
2022-07-25T03:45:29.282Z,1000.78
2022-07-25T03:46:50.237Z,1000.77
2022-07-25T03:47:30.767Z,1000.8
2022-07-25T03:48:11.218Z,1000.76
2022-07-25T03:48:51.791Z,1000.78
2022-07-25T03:49:32.284Z,1000.77
2022-07-25T03:50:12.687Z,1000.76
2022-07-25T03:50:53.150Z,1000.77
2022-07-25T03:51:33.707Z,1000.77
2022-07-25T03:52:14.198Z,1000.73
2022-07-25T03:52:54.663Z,1000.74
2022-07-25T03:53:35.200Z,1000.75
2022-07-25T03:54:15.687Z,1000.77
2022-07-25T03:54:56.202Z,1000.75
2022-07-25T03:55:36.696Z,1000.74
2022-07-25T03:56:17.176Z,1000.77
2022-07-25T03:56:57.649Z,1000.74
2022-07-25T03:57:38.154Z,1000.71
2022-07-25T03:58:18.687Z,1000.7
2022-07-25T03:59:00.035Z,1000.7
2022-07-25T03:59:40.586Z,1000.69
2022-07-25T04:00:21.112Z,1000.71
2022-07-25T04:01:01.637Z,1000.69
2022-07-25T04:01:42.044Z,1000.71
2022-07-25T04:02:22.624Z,1000.65
2022-07-25T04:03:03.027Z,1000.61
2022-07-25T04:03:43.837Z,1000.69
2022-07-25T04:04:24.018Z,1000.69
2022-07-25T04:05:04.585Z,1000.66
2022-07-25T04:05:47.517Z,1000.67
2022-07-25T04:06:25.552Z,1000.64
2022-07-25T04:07:06.037Z,1000.63
2022-07-25T04:07:46.601Z,1000.62
2022-07-25T04:08:27.125Z,1000.64
2022-07-25T04:09:48.025Z,1000.61
2022-07-25T04:10:28.507Z,1000.62
2022-07-25T04:11:09.015Z,1000.59
2022-07-25T04:11:49.479Z,1000.59
2022-07-25T04:12:29.979Z,1000.61
2022-07-25T04:13:10.496Z,1000.6
2022-07-25T04:13:51.056Z,1000.59
2022-07-25T04:14:31.533Z,1000.59
2022-07-25T04:15:12.061Z,1000.57
2022-07-25T04:15:52.577Z,1000.59
2022-07-25T04:16:33.075Z,1000.57
2022-07-25T04:17:13.607Z,1000.58
2022-07-25T04:17:54.039Z,1000.58
2022-07-25T04:18:34.457Z,1000.61
2022-07-25T04:19:14.925Z,1000.59
2022-07-25T04:19:55.448Z,1000.57
2022-07-25T04:20:35.839Z,1000.56
2022-07-25T04:21:16.371Z,1000.57
2022-07-25T04:21:56.823Z,1000.62
2022-07-25T04:22:37.287Z,1000.57
2022-07-25T04:23:17.736Z,1000.58
2022-07-25T04:23:58.339Z,1000.57
2022-07-25T04:24:38.814Z,1000.6
2022-07-25T04:25:19.415Z,1000.63
2022-07-25T04:25:59.869Z,1000.57
2022-07-25T04:26:40.421Z,1000.58
2022-07-25T04:27:20.901Z,1000.6
2022-07-25T04:28:01.380Z,1000.59
2022-07-25T04:28:41.898Z,1000.58
2022-07-25T04:29:22.360Z,1000.57
2022-07-25T04:30:02.841Z,1000.54
2022-07-25T04:30:43.360Z,1000.58
2022-07-25T04:31:23.925Z,1000.56
2022-07-25T04:32:04.380Z,1000.54
2022-07-25T04:32:44.881Z,1000.53
2022-07-25T04:33:25.303Z,1000.52
2022-07-25T04:34:06.824Z,1000.5
2022-07-25T04:34:47.070Z,1000.55
2022-07-25T04:35:27.491Z,1000.49
2022-07-25T04:38:42.064Z,1000.47
2022-07-25T04:39:22.983Z,1000.48
2022-07-25T04:40:03.412Z,1000.46
2022-07-25T04:40:43.947Z,1000.46
2022-07-25T04:41:24.430Z,1000.43
2022-07-25T04:42:04.909Z,1000.44
2022-07-25T04:42:45.404Z,1000.44
2022-07-25T04:43:25.970Z,1000.44
2022-07-25T04:44:06.759Z,1000.43
2022-07-25T04:44:46.977Z,1000.43
2022-07-25T04:45:27.402Z,1000.43
2022-07-25T04:46:08.121Z,1000.41
2022-07-25T04:46:48.412Z,1000.44
2022-07-25T04:47:28.910Z,1000.43
2022-07-25T04:48:09.416Z,1000.42
2022-07-25T04:48:49.927Z,1000.39
2022-07-25T04:49:30.317Z,1000.38
2022-07-25T04:50:10.832Z,1000.37
2022-07-25T04:50:51.370Z,1000.41
2022-07-25T04:51:31.835Z,1000.4
2022-07-25T04:52:12.386Z,1000.35
2022-07-25T04:52:52.845Z,1000.4
2022-07-25T04:53:33.342Z,1000.39
2022-07-25T04:54:13.878Z,1000.35
2022-07-25T04:54:54.391Z,1000.35
2022-07-25T04:55:34.911Z,1000.39
2022-07-25T04:56:15.389Z,1000.39
2022-07-25T04:56:55.894Z,1000.4
2022-07-25T04:57:36.375Z,1000.37
2022-07-25T04:58:17.051Z,1000.37
2022-07-25T04:58:59.562Z,1000.38
2022-07-25T04:59:38.025Z,1000.4
2022-07-25T05:00:18.542Z,1000.4
2022-07-25T05:00:59.034Z,1000.41
2022-07-25T05:01:39.486Z,1000.37
2022-07-25T05:02:20.157Z,1000.36
2022-07-25T05:03:00.650Z,1000.37
2022-07-25T05:03:41.135Z,1000.38
2022-07-25T05:04:21.612Z,1000.4
2022-07-25T05:05:03.040Z,1000.42
2022-07-25T05:05:42.638Z,1000.4
2022-07-25T05:06:23.111Z,1000.38
2022-07-25T05:07:03.652Z,1000.4
2022-07-25T05:07:44.138Z,1000.37
2022-07-25T05:08:24.557Z,1000.34
2022-07-25T05:09:05.061Z,1000.35
2022-07-25T05:09:45.908Z,1000.31
2022-07-25T05:10:26.219Z,1000.35
2022-07-25T05:11:06.720Z,1000.28
2022-07-25T05:11:49.563Z,1000.28
2022-07-25T05:12:27.734Z,1000.25
2022-07-25T05:13:08.252Z,1000.24
2022-07-25T05:13:48.768Z,1000.2
2022-07-25T05:15:47.061Z,1000.22
2022-07-25T05:16:28.143Z,1000.21
2022-07-25T05:17:09.131Z,1000.21
2022-07-25T05:17:51.103Z,1000.23
2022-07-25T05:18:32.107Z,1000.22
2022-07-25T05:19:13.258Z,1000.24
2022-07-25T05:19:54.285Z,1000.22
2022-07-25T05:20:35.286Z,1000.24
2022-07-25T05:21:16.352Z,1000.23
2022-07-25T05:21:57.494Z,1000.21
2022-07-25T05:22:38.482Z,1000.23
2022-07-25T05:23:19.518Z,1000.24
2022-07-25T05:24:01.347Z,1000.28
2022-07-25T05:24:42.388Z,1000.23
2022-07-25T05:25:23.513Z,1000.21
2022-07-25T05:26:05.418Z,1000.21
2022-07-25T05:26:46.325Z,1000.22
2022-07-25T05:27:27.371Z,1000.26
2022-07-25T05:28:08.368Z,1000.25
2022-07-25T05:28:49.343Z,1000.24
2022-07-25T05:31:02.728Z,1000.15
2022-07-25T05:31:43.248Z,1000.18
2022-07-25T05:34:12.518Z,1000.16
2022-07-25T05:34:53.088Z,1000.17
2022-07-25T05:35:33.585Z,1000.16
2022-07-25T05:36:14.948Z,1000.11
2022-07-25T05:36:55.410Z,1000.15
2022-07-25T05:37:36.023Z,1000.12
2022-07-25T05:38:16.605Z,1000.11
2022-07-25T05:38:57.077Z,1000.1
2022-07-25T05:39:37.650Z,1000.1
2022-07-25T05:40:18.198Z,1000.1
2022-07-25T05:40:58.648Z,1000.05
2022-07-25T05:41:39.194Z,1000.07
2022-07-25T05:42:19.793Z,1000.09
2022-07-25T05:45:33.659Z,1000.1
2022-07-25T05:46:14.250Z,1000.09
2022-07-25T05:46:54.648Z,1000.06
2022-07-25T05:47:35.074Z,1000.11
2022-07-25T05:50:04.055Z,1000.06
2022-07-25T06:33:34.582Z,1000.06
2022-07-25T06:34:15.352Z,1000.05
2022-07-25T06:34:55.931Z,1000.03
2022-07-25T06:35:36.480Z,1000.01
2022-07-25T06:36:17.211Z,999.97
2022-07-25T06:36:57.807Z,999.95
2022-07-25T06:37:38.272Z,999.97
2022-07-25T06:38:18.760Z,999.97
2022-07-25T06:38:59.530Z,999.98
2022-07-25T06:39:42.569Z,999.96
2022-07-25T06:40:20.723Z,999.98
2022-07-25T06:41:01.850Z,999.95
2022-07-25T06:41:42.324Z,999.92
2022-07-25T06:42:23.010Z,999.93
2022-07-25T06:43:04.050Z,999.9
2022-07-25T06:43:44.300Z,999.91
2022-07-25T06:44:24.960Z,999.87
2022-07-25T06:45:05.958Z,999.88
2022-07-25T06:45:46.586Z,999.85
2022-07-25T06:46:27.442Z,999.87
2022-07-25T06:47:08.022Z,999.89
2022-07-25T06:47:48.542Z,999.93
2022-07-25T06:48:29.281Z,999.92
2022-07-25T06:49:09.732Z,999.91
2022-07-25T06:49:50.411Z,999.95
2022-07-25T06:50:31.929Z,999.97
2022-07-25T06:51:12.512Z,999.91
2022-07-25T06:51:56.198Z,999.94
2022-07-25T06:52:37.927Z,999.96
2022-07-25T06:53:18.506Z,999.96
2022-07-25T06:53:59.121Z,999.99
2022-07-25T06:54:39.824Z,1000.02
2022-07-25T06:55:21.228Z,1000.01
2022-07-25T06:56:02.391Z,999.98
2022-07-25T06:56:42.791Z,999.98
2022-07-25T06:57:23.749Z,1000
2022-07-25T07:03:55.412Z,999.8
2022-07-25T07:04:35.574Z,999.83
2022-07-25T07:05:16.498Z,999.81
2022-07-25T07:05:59.959Z,999.79
2022-07-25T07:06:40.662Z,999.76
2022-07-25T07:07:22.356Z,999.77
2022-07-25T07:08:03.053Z,999.75
2022-07-25T07:08:43.657Z,999.76
2022-07-25T07:09:24.494Z,999.73
2022-07-25T07:10:05.278Z,999.72
2022-07-25T07:10:46.385Z,999.67
2022-07-25T07:13:48.595Z,999.73
2022-07-25T07:14:29.840Z,999.73
2022-07-25T07:15:11.679Z,999.73
2022-07-25T07:15:52.480Z,999.73
2022-07-25T07:16:34.080Z,999.75
2022-07-25T07:17:14.438Z,999.72
2022-07-25T07:17:54.934Z,999.73
2022-07-25T07:18:35.685Z,999.73
2022-07-25T07:19:16.206Z,999.69
2022-07-25T07:23:08.746Z,999.72
2022-07-25T07:23:49.215Z,999.7
2022-07-25T07:26:33.569Z,999.67
2022-07-25T07:28:30.926Z,999.66
2022-07-25T07:29:10.733Z,999.64
2022-07-25T07:29:51.464Z,999.68
2022-07-25T07:30:52.395Z,999.72
2022-07-25T07:31:17.089Z,999.7
2022-07-25T07:31:53.146Z,999.71
2022-07-25T07:32:33.754Z,999.67
2022-07-25T07:33:14.442Z,999.64
2022-07-25T07:34:36.134Z,999.63
2022-07-25T07:35:17.014Z,999.67
2022-07-25T07:35:57.662Z,999.64
2022-07-25T07:36:39.343Z,999.64
2022-07-25T07:37:20.029Z,999.65
2022-07-25T07:38:00.648Z,999.64
2022-07-25T07:38:41.911Z,999.74
2022-07-25T07:39:22.597Z,999.7
2022-07-25T07:40:04.179Z,999.72
2022-07-25T07:40:44.877Z,999.7
2022-07-25T07:41:25.493Z,999.7
2022-07-25T07:45:07.229Z,999.72
2022-07-25T07:45:48.649Z,999.68
2022-07-25T07:46:30.863Z,999.71
2022-07-25T07:47:14.603Z,999.69
2022-07-25T07:47:54.410Z,999.68
2022-07-25T07:48:35.620Z,999.67
2022-07-25T07:49:16.781Z,999.68
2022-07-25T07:49:58.079Z,999.66
2022-07-25T07:50:39.780Z,999.69
2022-07-25T07:51:20.959Z,999.71
2022-07-25T07:52:02.164Z,999.68
2022-07-25T07:52:43.267Z,999.69
2022-07-25T07:53:25.050Z,999.67
2022-07-25T07:54:06.193Z,999.66
2022-07-25T07:54:47.424Z,999.64
2022-07-25T07:55:28.779Z,999.57
2022-07-25T07:56:09.841Z,999.6
2022-07-25T07:56:50.913Z,999.58
2022-07-25T07:57:32.331Z,999.55
2022-07-25T07:58:13.322Z,999.56
2022-07-25T07:58:54.892Z,999.58
2022-07-25T07:59:35.973Z,999.58
2022-07-25T08:02:59.750Z,999.55
2022-07-25T08:03:41.660Z,999.57
2022-07-25T08:04:23.746Z,999.62
2022-07-25T08:07:27.091Z,999.64
2022-07-25T08:08:07.646Z,999.64
2022-07-25T08:08:49.460Z,999.66
2022-07-25T08:09:30.308Z,999.67
2022-07-25T08:10:11.147Z,999.7
2022-07-25T08:10:54.526Z,999.66
2022-07-25T08:11:31.954Z,999.72
2022-07-25T08:12:12.599Z,999.7
2022-07-25T08:12:53.424Z,999.76
2022-07-25T08:13:34.582Z,999.73
2022-07-25T08:14:15.048Z,999.74
2022-07-25T08:14:56.021Z,999.75
2022-07-25T08:15:36.589Z,999.71
2022-07-25T08:16:18.273Z,999.71
2022-07-25T08:16:58.655Z,999.71
2022-07-25T08:17:39.335Z,999.73
2022-07-25T08:18:19.867Z,999.66
2022-07-25T08:19:41.107Z,999.68
2022-07-25T08:20:37.267Z,999.72
2022-07-25T08:21:02.172Z,999.69
2022-07-25T08:24:59.479Z,999.76
2022-07-25T08:25:38.917Z,999.73
2022-07-25T08:26:20.222Z,999.7
2022-07-25T08:27:00.998Z,999.67
2022-07-25T08:27:41.528Z,999.67
2022-07-25T08:28:22.254Z,999.68
2022-07-25T08:29:17.964Z,999.69
2022-07-25T08:29:43.350Z,999.69
2022-07-25T08:30:23.992Z,999.69
2022-07-25T08:31:04.652Z,999.75
2022-07-25T08:31:45.274Z,999.74
2022-07-25T08:38:09.799Z,999.79
2022-07-25T08:40:27.208Z,999.88
2022-07-25T08:41:08.160Z,999.88
2022-07-25T08:41:48.744Z,999.91
2022-07-25T08:42:29.432Z,999.93
2022-07-25T08:43:10.027Z,999.95
2022-07-25T08:43:50.982Z,999.89
2022-07-25T08:44:31.658Z,999.85
2022-07-25T08:45:12.162Z,999.86
2022-07-25T08:45:52.801Z,999.88
2022-07-25T08:46:33.448Z,999.86
2022-07-25T08:47:14.061Z,999.92
2022-07-25T08:47:54.822Z,999.91
2022-07-25T08:48:35.384Z,999.93
2022-07-25T08:49:15.837Z,999.95
2022-07-25T08:49:59.623Z,999.96
2022-07-25T08:50:37.549Z,999.97
2022-07-25T08:51:17.981Z,999.95
2022-07-25T08:51:58.495Z,999.94
2022-07-25T08:52:38.975Z,999.98
2022-07-25T08:53:35.522Z,999.92
2022-07-25T08:54:00.265Z,999.91
2022-07-25T08:54:40.931Z,999.93
2022-07-25T08:55:21.397Z,999.89
2022-07-25T08:56:08.095Z,999.9
2022-07-25T08:56:43.432Z,999.92
2022-07-25T08:57:23.995Z,999.95
2022-07-25T08:58:04.525Z,999.93
2022-07-25T08:58:45.172Z,999.99
2022-07-25T08:59:25.804Z,1000
2022-07-25T09:00:06.258Z,1000.07
2022-07-25T09:00:48.738Z,1000.03
2022-07-25T09:01:34.433Z,1000.09
2022-07-25T09:02:11.323Z,1000.04
2022-07-25T09:02:51.448Z,1000.1
2022-07-25T09:03:32.122Z,1000.02
2022-07-25T09:04:12.750Z,999.99
2022-07-25T09:04:53.389Z,1000
2022-07-25T09:05:33.837Z,1000
2022-07-25T09:06:14.707Z,999.97
2022-07-25T09:06:55.771Z,1000.02
2022-07-25T09:07:36.407Z,1000.04
2022-07-25T09:08:17.360Z,1000.05
2022-07-25T09:09:38.578Z,1000.09
2022-07-25T09:10:19.059Z,1000.14
2022-07-25T09:10:59.797Z,1000.08
2022-07-25T09:11:40.356Z,1000.12
2022-07-25T09:12:25.735Z,1000.16
2022-07-25T09:15:20.508Z,1000.08
2022-07-25T09:16:01.880Z,1000.12
2022-07-25T09:16:42.762Z,1000.15
2022-07-25T09:17:23.618Z,1000.12
2022-07-25T09:18:03.719Z,1000.1
2022-07-25T09:18:44.518Z,1000.12
2022-07-25T09:20:06.001Z,1000.16
2022-07-25T09:20:46.661Z,1000.16
2022-07-25T09:21:27.181Z,1000.12
2022-07-25T09:22:10.183Z,1000.15
2022-07-25T09:22:48.255Z,1000.2
2022-07-25T09:23:29.073Z,1000.18
2022-07-25T09:24:09.887Z,1000.2
2022-07-25T09:24:50.292Z,1000.12
2022-07-25T09:25:30.809Z,1000.1
2022-07-25T09:26:11.561Z,1000.09
2022-07-25T09:26:52.136Z,1000.09
2022-07-25T09:27:32.878Z,1000.12
2022-07-25T09:28:13.478Z,1000.13
2022-07-25T09:28:53.998Z,1000.12
2022-07-25T09:29:34.596Z,1000.17
2022-07-25T09:30:15.235Z,1000.11
2022-07-25T09:30:56.091Z,1000.21
2022-07-25T09:31:36.628Z,1000.18
2022-07-25T09:34:40.174Z,1000.24
2022-07-25T09:35:27.481Z,1000.27
2022-07-25T09:36:15.972Z,1000.24
2022-07-25T09:37:04.808Z,1000.3
2022-07-25T09:37:54.067Z,1000.34
2022-07-25T09:38:34.944Z,1000.29
2022-07-25T09:39:15.429Z,1000.32
2022-07-25T09:39:56.007Z,1000.28
2022-07-25T09:40:36.501Z,1000.29
2022-07-25T09:41:16.991Z,1000.31
2022-07-25T09:41:57.568Z,1000.31
2022-07-25T09:42:38.036Z,1000.32
2022-07-25T09:43:18.613Z,1000.42
2022-07-25T09:43:59.207Z,1000.39
2022-07-25T09:44:39.716Z,1000.46
2022-07-25T09:45:20.397Z,1000.43
2022-07-25T09:46:01.109Z,1000.54
2022-07-25T09:46:41.582Z,1000.54
2022-07-25T09:47:22.097Z,1000.59
2022-07-25T09:48:03.436Z,1000.62
2022-07-25T09:48:44.066Z,1000.68
2022-07-25T09:49:24.509Z,1000.64
2022-07-25T09:50:05.120Z,1000.66
2022-07-25T09:50:45.665Z,1000.71
2022-07-25T09:51:26.306Z,1000.68
2022-07-25T09:52:06.781Z,1000.7
2022-07-25T09:52:47.279Z,1000.67
2022-07-25T09:53:27.828Z,1000.72
2022-07-25T09:54:08.685Z,1000.68
2022-07-25T09:54:48.885Z,1000.7
2022-07-25T09:55:29.339Z,1000.7
2022-07-25T09:56:50.506Z,1000.67
2022-07-25T09:57:31.259Z,1000.67
2022-07-25T09:58:11.734Z,1000.66
2022-07-25T09:58:52.280Z,1000.63
2022-07-25T09:59:33.001Z,1000.68
2022-07-25T10:00:17.593Z,1000.69
2022-07-25T10:00:54.010Z,1000.67
2022-07-25T10:01:34.724Z,1000.69
2022-07-25T10:02:15.165Z,1000.74
2022-07-25T10:02:55.780Z,1000.77
2022-07-25T10:03:36.160Z,1000.74
2022-07-25T10:04:16.710Z,1000.74
2022-07-25T10:04:57.150Z,1000.72
2022-07-25T10:05:37.630Z,1000.71
2022-07-25T10:06:18.127Z,1000.67
2022-07-25T10:06:58.718Z,1000.62
2022-07-25T10:07:39.239Z,1000.6
2022-07-25T10:08:19.744Z,1000.65
2022-07-25T10:09:00.260Z,1000.64
2022-07-25T10:09:40.812Z,1000.7
2022-07-25T10:10:21.439Z,1000.68
2022-07-25T10:11:02.074Z,1000.68
2022-07-25T10:11:42.519Z,1000.67
2022-07-25T10:12:23.114Z,1000.61
2022-07-25T10:13:07.984Z,1000.6
2022-07-25T10:13:44.112Z,1000.57
2022-07-25T10:14:24.567Z,1000.53
2022-07-25T10:15:05.155Z,1000.56
2022-07-25T10:15:45.681Z,1000.49
2022-07-25T10:16:26.300Z,1000.54
2022-07-25T10:17:06.958Z,1000.45
2022-07-25T10:17:47.487Z,1000.43
2022-07-25T10:18:28.103Z,1000.42
2022-07-25T10:19:08.751Z,1000.33
2022-07-25T10:19:54.225Z,1000.26
2022-07-25T10:20:29.797Z,1000.19
2022-07-25T10:21:24.781Z,1000.14
2022-07-25T10:21:50.849Z,1000.12
2022-07-25T10:22:54.110Z,1000.1
2022-07-25T10:23:11.837Z,1000.16
2022-07-25T10:23:52.446Z,1000.2
2022-07-25T10:24:33.054Z,1000.3
2022-07-25T10:25:13.576Z,1000.29
2022-07-25T10:25:54.135Z,1000.36
2022-07-25T10:26:34.829Z,1000.4
2022-07-25T10:27:15.253Z,1000.43
2022-07-25T10:27:55.795Z,1000.46
2022-07-25T10:28:36.386Z,1000.46
2022-07-25T10:29:16.974Z,1000.45
2022-07-25T10:29:57.457Z,1000.5
2022-07-25T10:30:37.963Z,1000.55
2022-07-25T10:31:18.525Z,1000.48
2022-07-25T10:31:59.083Z,1000.53
2022-07-25T10:32:39.557Z,1000.53
2022-07-25T10:33:20.008Z,1000.49
2022-07-25T10:34:00.511Z,1000.49
2022-07-25T10:34:41.016Z,1000.5
2022-07-25T10:35:21.516Z,1000.45
2022-07-25T10:36:02.006Z,1000.44
2022-07-25T10:36:42.519Z,1000.45
2022-07-25T10:37:23.008Z,1000.49
2022-07-25T10:38:03.540Z,1000.53